createdAt,value
2017-10-19T00:00:46.513Z,56.83
2017-10-19T00:03:14.042Z,87.73
2017-10-19T00:05:41.546Z,58.80
2017-10-19T00:08:09.273Z,70.27
2017-10-19T00:10:36.773Z,78.33
2017-10-19T00:13:04.274Z,63.60
2017-10-19T00:15:31.799Z,64.67
2017-10-19T00:17:59.288Z,74.60
2017-10-19T00:20:26.780Z,52.43
2017-10-19T00:22:54.319Z,73.63
2017-10-19T00:25:21.807Z,70.13
2017-10-19T00:27:49.340Z,61.87
2017-10-19T00:30:16.912Z,64.80
2017-10-19T00:32:44.444Z,65.13
2017-10-19T00:35:12.037Z,70.17
2017-10-19T00:37:39.592Z,61.90
2017-10-19T00:40:07.116Z,69.43
2017-10-19T00:42:34.649Z,75.47
2017-10-19T00:45:02.230Z,64.70
2017-10-19T00:47:29.760Z,71.47
2017-10-19T00:49:57.289Z,66.60
2017-10-19T00:52:24.879Z,73.80
2017-10-19T00:54:52.413Z,62.50
2017-10-19T00:57:19.917Z,78.50
2017-10-19T00:59:47.445Z,59.43
2017-10-19T01:02:14.946Z,64.97
2017-10-19T01:04:42.439Z,61.70
2017-10-19T01:07:10.070Z,68.73
2017-10-19T01:09:38.427Z,60.20
2017-10-19T01:12:05.919Z,59.17
2017-10-19T01:14:33.443Z,73.70
2017-10-19T01:17:00.934Z,58.67
2017-10-19T01:19:28.428Z,78.20
2017-10-19T01:21:55.963Z,71.73
2017-10-19T01:24:23.459Z,74.37
2017-10-19T01:26:50.956Z,71.00
2017-10-19T01:29:18.615Z,58.30
2017-10-19T01:31:46.108Z,70.17
2017-10-19T01:34:13.606Z,67.77
2017-10-19T01:36:41.156Z,71.17
2017-10-19T01:39:08.656Z,72.60
2017-10-19T01:41:36.154Z,69.63
2017-10-19T01:44:03.695Z,64.80
2017-10-19T01:46:31.228Z,85.17
2017-10-19T01:48:58.720Z,70.57
2017-10-19T01:51:26.258Z,62.80
2017-10-19T01:53:53.757Z,62.67
2017-10-19T01:56:21.252Z,76.50
2017-10-19T01:58:48.924Z,73.67
2017-10-19T02:01:16.420Z,68.27
2017-10-19T02:03:43.930Z,66.43
2017-10-19T02:06:11.495Z,72.30
2017-10-19T02:08:38.992Z,62.40
2017-10-19T02:11:06.509Z,61.50
2017-10-19T02:13:34.068Z,58.67
2017-10-19T02:16:01.568Z,61.20
2017-10-19T02:18:29.058Z,60.03
2017-10-19T02:20:56.748Z,68.83
2017-10-19T02:23:24.247Z,92.97
2017-10-19T02:25:51.736Z,78.47
2017-10-19T02:28:19.349Z,69.90
2017-10-19T02:30:46.841Z,78.37
2017-10-19T02:33:14.332Z,81.93
2017-10-19T02:35:41.882Z,63.23
2017-10-19T02:38:09.380Z,67.93
2017-10-19T02:40:36.877Z,79.90
2017-10-19T02:43:04.479Z,68.87
2017-10-19T02:45:32.039Z,68.43
2017-10-19T02:47:59.536Z,62.73
2017-10-19T02:50:27.063Z,75.63
2017-10-19T02:52:54.613Z,68.63
2017-10-19T02:55:22.170Z,67.10
2017-10-19T02:57:49.740Z,69.60
2017-10-19T03:00:17.231Z,65.70
2017-10-19T03:02:44.763Z,70.07
2017-10-19T03:05:12.307Z,64.60
2017-10-19T03:07:39.868Z,69.23
2017-10-19T03:10:07.523Z,81.67
2017-10-19T03:12:35.020Z,71.77
2017-10-19T03:15:02.512Z,63.57
2017-10-19T03:17:30.043Z,71.73
2017-10-19T03:19:57.530Z,78.70
2017-10-19T03:22:25.036Z,66.47
2017-10-19T03:24:52.675Z,80.40
2017-10-19T03:27:20.171Z,64.23
2017-10-19T03:29:47.663Z,60.07
2017-10-19T03:32:15.208Z,67.30
2017-10-19T03:34:42.696Z,80.13
2017-10-19T03:37:10.196Z,69.13
2017-10-19T03:39:37.837Z,84.90
2017-10-19T03:42:05.339Z,75.10
2017-10-19T03:44:32.849Z,72.33
2017-10-19T03:47:00.411Z,76.90
2017-10-19T03:49:27.965Z,72.53
2017-10-19T03:51:55.460Z,73.13
2017-10-19T03:54:23.000Z,62.63
2017-10-19T03:56:50.503Z,72.27
2017-10-19T03:59:17.996Z,54.70
2017-10-19T04:01:45.525Z,56.10
2017-10-19T04:04:13.021Z,56.83
2017-10-19T04:06:40.508Z,73.13
2017-10-19T04:09:08.034Z,72.63
2017-10-19T04:11:35.532Z,78.43
2017-10-19T04:14:03.026Z,64.00
2017-10-19T04:16:30.544Z,64.10
2017-10-19T04:18:58.068Z,64.50
2017-10-19T04:21:25.544Z,72.87
2017-10-19T04:23:53.286Z,55.37
2017-10-19T04:26:20.845Z,82.37
2017-10-19T04:28:48.403Z,57.00
2017-10-19T04:31:15.973Z,68.00
2017-10-19T04:33:43.520Z,61.30
2017-10-19T04:36:11.007Z,58.67
2017-10-19T04:38:38.627Z,60.27
2017-10-19T04:41:06.113Z,58.37
2017-10-19T04:43:33.595Z,57.03
2017-10-19T04:46:01.194Z,62.50
2017-10-19T04:48:28.689Z,55.23
2017-10-19T04:50:56.231Z,49.33
2017-10-19T04:53:23.798Z,53.40
2017-10-19T04:55:51.354Z,57.17
2017-10-19T04:58:18.852Z,54.50
2017-10-19T05:00:46.420Z,61.37
2017-10-19T05:03:13.913Z,66.30
2017-10-19T05:05:41.406Z,49.90
2017-10-19T05:08:08.953Z,53.70
2017-10-19T05:10:36.448Z,66.47
2017-10-19T05:13:03.940Z,67.60
2017-10-19T05:15:31.620Z,69.30
2017-10-19T05:17:59.111Z,57.80
2017-10-19T05:20:26.608Z,55.13
2017-10-19T05:22:54.155Z,70.80
2017-10-19T05:25:21.651Z,60.63
2017-10-19T05:27:49.146Z,59.30
2017-10-19T05:30:16.688Z,47.80
2017-10-19T05:32:44.183Z,68.50
2017-10-19T05:35:11.679Z,52.73
2017-10-19T05:37:39.340Z,45.73
2017-10-19T05:40:06.924Z,46.83
2017-10-19T05:42:34.462Z,59.23
2017-10-19T05:45:01.987Z,43.80
2017-10-19T05:47:29.489Z,54.47
2017-10-19T05:49:56.984Z,59.70
2017-10-19T05:52:24.595Z,52.60
2017-10-19T05:54:52.161Z,42.73
2017-10-19T05:57:19.715Z,55.20
2017-10-19T05:59:47.372Z,43.23
2017-10-19T06:02:14.868Z,41.77
2017-10-19T06:04:42.363Z,38.77
2017-10-19T06:07:10.052Z,43.10
2017-10-19T06:09:37.607Z,45.60
2017-10-19T06:12:05.107Z,40.40
2017-10-19T06:14:32.652Z,47.00
2017-10-19T06:17:00.145Z,45.53
2017-10-19T06:19:27.641Z,36.90
2017-10-19T06:21:55.169Z,55.90
2017-10-19T06:24:22.677Z,50.37
2017-10-19T06:26:50.335Z,50.97
2017-10-19T06:29:17.833Z,39.13
2017-10-19T06:31:45.343Z,51.33
2017-10-19T06:34:12.884Z,66.67
2017-10-19T06:36:40.373Z,56.17
2017-10-19T06:39:07.888Z,62.63
2017-10-19T06:41:35.598Z,48.23
2017-10-19T06:44:03.091Z,74.97
2017-10-19T06:46:30.594Z,54.80
2017-10-19T06:48:58.255Z,55.90
2017-10-19T06:51:25.745Z,67.97
2017-10-19T06:53:53.246Z,69.80
2017-10-19T06:56:20.786Z,57.47
2017-10-19T06:58:48.285Z,74.73
2017-10-19T07:01:15.784Z,71.23
2017-10-19T07:03:43.363Z,89.03
2017-10-19T07:06:10.884Z,72.20
2017-10-19T07:08:38.381Z,69.03
2017-10-19T07:11:05.983Z,76.20
2017-10-19T07:13:33.479Z,72.87
2017-10-19T07:16:00.970Z,85.03
2017-10-19T07:18:28.554Z,68.30
2017-10-19T07:20:56.048Z,85.27
2017-10-19T07:23:23.543Z,73.17
2017-10-19T07:25:51.080Z,73.70
2017-10-19T07:28:18.568Z,71.43
2017-10-19T07:30:46.066Z,69.20
2017-10-19T07:33:13.595Z,89.70
2017-10-19T07:35:41.088Z,76.37
2017-10-19T07:38:08.593Z,83.47
2017-10-19T07:40:36.148Z,84.07
2017-10-19T07:43:03.640Z,69.47
2017-10-19T07:45:31.203Z,108.27
2017-10-19T07:47:58.748Z,88.00
2017-10-19T07:50:26.257Z,85.33
2017-10-19T07:52:53.753Z,99.73
2017-10-19T07:55:21.355Z,75.40
2017-10-19T07:57:48.854Z,80.90
2017-10-19T08:00:16.353Z,88.43
2017-10-19T08:02:43.888Z,88.30
2017-10-19T08:05:12.353Z,77.70
2017-10-19T08:07:39.842Z,99.23
2017-10-19T08:10:07.383Z,107.13
2017-10-19T08:12:34.881Z,87.53
2017-10-19T08:15:02.428Z,78.53
2017-10-19T08:17:29.965Z,87.77
2017-10-19T08:19:57.456Z,69.00
2017-10-19T08:22:24.995Z,76.17
2017-10-19T08:24:52.510Z,83.67
2017-10-19T08:27:20.037Z,92.73
2017-10-19T08:29:47.591Z,83.30
2017-10-19T08:32:15.087Z,86.93
2017-10-19T08:34:42.718Z,85.87
2017-10-19T08:37:10.238Z,98.23
2017-10-19T08:39:37.816Z,102.33
2017-10-19T08:42:05.310Z,101.40
2017-10-19T08:44:32.848Z,102.63
2017-10-19T08:47:00.398Z,99.63
2017-10-19T08:49:27.885Z,89.97
2017-10-19T08:51:55.408Z,95.03
2017-10-19T08:54:22.900Z,96.00
2017-10-19T08:56:50.424Z,99.33
2017-10-19T08:59:17.955Z,91.60
2017-10-19T09:01:45.448Z,92.50
2017-10-19T09:04:12.991Z,133.20
2017-10-19T09:06:40.523Z,87.77
2017-10-19T09:09:08.031Z,94.87
2017-10-19T09:11:35.521Z,96.97
2017-10-19T09:14:03.065Z,85.27
2017-10-19T09:16:30.583Z,85.50
2017-10-19T09:18:58.086Z,78.27
2017-10-19T09:21:25.619Z,86.17
2017-10-19T09:23:53.107Z,90.10
2017-10-19T09:26:20.610Z,100.57
2017-10-19T09:28:48.178Z,89.73
2017-10-19T09:31:15.736Z,79.80
2017-10-19T09:33:43.229Z,88.93
2017-10-19T09:36:10.772Z,90.27
2017-10-19T09:38:38.263Z,89.87
2017-10-19T09:41:05.775Z,101.33
2017-10-19T09:43:33.354Z,96.30
2017-10-19T09:46:00.848Z,94.00
2017-10-19T09:48:28.342Z,97.93
2017-10-19T09:50:56.013Z,84.90
2017-10-19T09:53:23.511Z,85.07
2017-10-19T09:55:51.003Z,90.47
2017-10-19T09:58:18.683Z,88.47
2017-10-19T10:00:46.180Z,77.47
2017-10-19T10:03:13.711Z,86.53
2017-10-19T10:05:41.241Z,83.37
2017-10-19T10:08:08.739Z,93.53
2017-10-19T10:10:36.282Z,78.60
2017-10-19T10:13:03.840Z,88.43
2017-10-19T10:15:31.326Z,88.90
2017-10-19T10:17:58.815Z,86.97
2017-10-19T10:20:26.355Z,74.03
2017-10-19T10:22:53.868Z,88.13
2017-10-19T10:25:21.372Z,85.40
2017-10-19T10:27:48.988Z,101.87
2017-10-19T10:30:16.476Z,83.33
2017-10-19T10:32:43.971Z,78.30
2017-10-19T10:35:11.567Z,84.53
2017-10-19T10:37:39.060Z,75.47
2017-10-19T10:40:06.586Z,72.23
2017-10-19T10:42:34.124Z,80.03
2017-10-19T10:45:01.625Z,79.83
2017-10-19T10:47:29.138Z,76.13
2017-10-19T10:49:56.663Z,77.67
2017-10-19T10:52:24.161Z,75.63
2017-10-19T10:54:51.681Z,70.03
2017-10-19T10:57:19.213Z,73.03
2017-10-19T10:59:46.708Z,73.90
2017-10-19T11:02:14.311Z,77.60
2017-10-19T11:04:41.856Z,78.20
2017-10-19T11:07:09.353Z,69.13
2017-10-19T11:09:36.857Z,78.60
2017-10-19T11:12:04.408Z,84.40
2017-10-19T11:14:31.903Z,82.30
2017-10-19T11:16:59.464Z,75.23
2017-10-19T11:19:26.992Z,87.03
2017-10-19T11:21:54.491Z,77.37
2017-10-19T11:24:22.040Z,78.87
2017-10-19T11:26:49.585Z,79.50
2017-10-19T11:29:17.082Z,84.77
2017-10-19T11:31:44.580Z,85.67
2017-10-19T11:34:12.105Z,90.90
2017-10-19T11:36:39.605Z,72.87
2017-10-19T11:39:07.092Z,80.70
2017-10-19T11:41:34.630Z,78.77
2017-10-19T11:44:02.204Z,82.37
2017-10-19T11:46:29.701Z,83.10
2017-10-19T11:48:57.237Z,84.73
2017-10-19T11:51:24.737Z,83.50
2017-10-19T11:53:52.252Z,101.37
2017-10-19T11:56:19.780Z,85.03
2017-10-19T11:58:47.274Z,93.37
2017-10-19T12:01:14.764Z,93.63
2017-10-19T12:03:42.294Z,84.90
2017-10-19T12:06:09.825Z,89.60
2017-10-19T12:08:37.367Z,90.23
2017-10-19T12:11:04.927Z,90.10
2017-10-19T12:13:32.422Z,95.97
2017-10-19T12:15:59.911Z,87.53
2017-10-19T12:18:27.437Z,100.67
2017-10-19T12:20:54.936Z,101.00
2017-10-19T12:23:22.537Z,95.20
2017-10-19T12:25:50.111Z,90.07
2017-10-19T12:28:17.613Z,92.80
2017-10-19T12:30:45.109Z,92.20
2017-10-19T12:33:12.628Z,110.70
2017-10-19T12:35:40.133Z,99.90
2017-10-19T12:38:07.664Z,101.23
2017-10-19T12:40:35.252Z,103.17
2017-10-19T12:43:02.747Z,99.50
2017-10-19T12:45:30.291Z,118.60
2017-10-19T12:47:57.835Z,92.80
2017-10-19T12:50:25.340Z,116.17
2017-10-19T12:52:53.043Z,105.00
2017-10-19T12:55:20.529Z,93.10
2017-10-19T12:57:48.066Z,111.43
2017-10-19T13:00:15.731Z,101.33
2017-10-19T13:02:43.228Z,112.07
2017-10-19T13:05:10.732Z,109.00
2017-10-19T13:07:38.408Z,119.87
2017-10-19T13:10:05.972Z,114.87
2017-10-19T13:12:33.465Z,97.87
2017-10-19T13:15:01.003Z,106.20
2017-10-19T13:17:28.500Z,116.87
2017-10-19T13:19:56.007Z,108.20
2017-10-19T13:22:23.545Z,94.87
2017-10-19T13:24:51.043Z,109.50
2017-10-19T13:27:18.546Z,100.90
2017-10-19T13:29:46.086Z,109.57
2017-10-19T13:32:13.583Z,96.70
2017-10-19T13:34:41.146Z,108.07
2017-10-19T13:37:08.677Z,102.30
2017-10-19T13:39:36.168Z,91.80
2017-10-19T13:42:03.730Z,102.80
2017-10-19T13:44:31.262Z,116.10
2017-10-19T13:46:58.759Z,110.87
2017-10-19T13:49:26.259Z,102.47
2017-10-19T13:51:53.805Z,103.87
2017-10-19T13:54:21.295Z,106.80
2017-10-19T13:56:48.883Z,114.23
2017-10-19T13:59:16.411Z,114.73
2017-10-19T14:01:43.998Z,115.70
2017-10-19T14:04:11.555Z,101.47
2017-10-19T14:06:39.215Z,135.00
2017-10-19T14:09:06.715Z,146.20
2017-10-19T14:11:34.243Z,132.43
2017-10-19T14:14:01.810Z,146.50
2017-10-19T14:16:29.303Z,129.20
2017-10-19T14:18:56.818Z,117.33
2017-10-19T14:21:24.348Z,115.77
2017-10-19T14:23:51.854Z,119.07
2017-10-19T14:26:19.353Z,126.53
2017-10-19T14:28:46.878Z,107.10
2017-10-19T14:31:14.379Z,104.97
2017-10-19T14:33:42.060Z,104.47
2017-10-19T14:36:09.576Z,114.53
2017-10-19T14:38:37.084Z,117.87
2017-10-19T14:41:04.623Z,109.47
2017-10-19T14:43:32.116Z,131.20
2017-10-19T14:45:59.612Z,107.20
2017-10-19T14:48:27.161Z,115.00
2017-10-19T14:50:54.661Z,109.00
2017-10-19T14:53:22.255Z,117.93
2017-10-19T14:55:49.797Z,115.87
2017-10-19T14:58:17.298Z,115.20
2017-10-19T15:00:44.862Z,115.63
2017-10-19T15:03:12.361Z,108.30
2017-10-19T15:05:39.958Z,112.33
2017-10-19T15:08:07.498Z,119.17
2017-10-19T15:10:35.039Z,144.67
2017-10-19T15:13:02.698Z,125.93
2017-10-19T15:15:30.291Z,120.40
2017-10-19T15:17:57.801Z,110.87
2017-10-19T15:20:25.518Z,123.37
2017-10-19T15:22:53.076Z,131.13
2017-10-19T15:25:20.594Z,129.80
2017-10-19T15:27:48.150Z,126.27
2017-10-19T15:30:15.654Z,112.70
2017-10-19T15:32:43.217Z,114.43
2017-10-19T15:35:10.761Z,112.97
2017-10-19T15:37:38.275Z,138.10
2017-10-19T15:40:05.787Z,125.60
2017-10-19T15:42:33.336Z,141.40
2017-10-19T15:45:01.055Z,129.57
2017-10-19T15:47:28.582Z,140.53
2017-10-19T15:49:56.108Z,146.20
2017-10-19T15:52:23.786Z,130.87
2017-10-19T15:54:51.291Z,143.47
2017-10-19T15:57:18.803Z,143.30
2017-10-19T15:59:46.384Z,141.07
2017-10-19T16:02:13.935Z,144.10
2017-10-19T16:04:41.513Z,156.47
2017-10-19T16:07:09.825Z,149.07
2017-10-19T16:09:37.392Z,142.53
2017-10-19T16:12:04.920Z,142.40
2017-10-19T16:14:32.451Z,142.63
2017-10-19T16:17:00.028Z,146.70
2017-10-19T16:19:27.653Z,145.80
2017-10-19T16:21:56.982Z,153.67
2017-10-19T16:24:24.621Z,151.00
2017-10-19T16:29:25.930Z,153.90
2017-10-19T16:31:53.470Z,163.97
2017-10-19T16:34:21.003Z,164.57
2017-10-19T16:36:48.540Z,150.33
2017-10-19T16:39:16.255Z,151.33
2017-10-19T16:41:43.758Z,142.63
2017-10-19T16:44:11.264Z,187.60
2017-10-19T16:46:38.795Z,143.40
2017-10-19T16:49:06.292Z,180.33
2017-10-19T16:51:33.888Z,148.63
2017-10-19T16:54:01.424Z,157.13
2017-10-19T16:56:28.935Z,140.20
2017-10-19T16:58:56.435Z,159.53
2017-10-19T17:01:24.134Z,142.40
2017-10-19T17:03:51.636Z,142.83
2017-10-19T17:06:19.145Z,161.30
2017-10-19T17:08:46.977Z,144.37
2017-10-19T17:11:14.473Z,164.03
2017-10-19T17:13:41.975Z,144.90
2017-10-19T17:16:09.524Z,137.67
2017-10-19T17:18:37.020Z,130.77
2017-10-19T17:21:04.516Z,144.53
2017-10-19T17:23:32.072Z,138.00
2017-10-19T17:25:59.569Z,138.67
2017-10-19T17:28:27.069Z,151.53
2017-10-19T17:30:54.644Z,134.57
2017-10-19T17:33:22.174Z,128.37
2017-10-19T17:35:49.685Z,145.17
2017-10-19T17:38:17.334Z,142.13
2017-10-19T17:40:44.836Z,139.03
2017-10-19T17:43:12.326Z,164.27
2017-10-19T17:45:39.999Z,112.70
2017-10-19T17:48:07.551Z,119.33
2017-10-19T17:50:35.078Z,118.67
2017-10-19T17:53:02.795Z,113.37
2017-10-19T17:55:30.322Z,137.30
2017-10-19T17:57:57.905Z,131.13
2017-10-19T18:00:25.497Z,120.80
2017-10-19T18:02:53.012Z,127.53
2017-10-19T18:05:20.522Z,111.13
2017-10-19T18:07:48.215Z,111.47
2017-10-19T18:10:15.750Z,123.47
2017-10-19T18:12:43.270Z,117.43
2017-10-19T18:15:10.833Z,119.10
2017-10-19T18:17:38.361Z,120.90
2017-10-19T18:20:05.893Z,113.20
2017-10-19T18:22:33.430Z,113.60
2017-10-19T18:25:01.005Z,121.33
2017-10-19T18:27:28.520Z,124.43
2017-10-19T18:29:56.022Z,119.97
2017-10-19T18:32:23.733Z,117.80
2017-10-19T18:34:51.330Z,118.40
2017-10-19T18:37:18.862Z,129.50
2017-10-19T18:39:46.424Z,122.10
2017-10-19T18:42:13.933Z,121.27
2017-10-19T18:44:41.457Z,123.50
2017-10-19T18:47:09.044Z,115.70
2017-10-19T18:49:36.549Z,113.63
2017-10-19T18:52:04.068Z,116.23
2017-10-19T18:54:31.958Z,124.30
2017-10-19T18:56:59.452Z,126.37
2017-10-19T18:59:26.950Z,122.63
2017-10-19T19:01:54.488Z,157.10
2017-10-19T19:04:21.987Z,133.33
2017-10-19T19:06:49.572Z,143.87
2017-10-19T19:09:17.320Z,132.20
2017-10-19T19:11:44.881Z,115.70
2017-10-19T19:14:12.375Z,127.90
2017-10-19T19:16:39.924Z,132.70
2017-10-19T19:19:07.420Z,127.23
2017-10-19T19:21:35.032Z,128.97
2017-10-19T19:24:02.560Z,146.93
2017-10-19T19:26:30.134Z,143.27
2017-10-19T19:28:57.690Z,146.13
2017-10-19T19:31:25.567Z,127.50
2017-10-19T19:33:53.064Z,133.83
2017-10-19T19:36:20.584Z,138.83
2017-10-19T19:38:48.435Z,135.57
2017-10-19T19:41:16.019Z,132.60
2017-10-19T19:43:43.512Z,135.53
2017-10-19T19:46:11.326Z,139.37
2017-10-19T19:48:38.888Z,128.00
2017-10-19T19:51:06.452Z,144.10
2017-10-19T19:53:33.972Z,134.20
2017-10-19T19:56:01.563Z,120.93
2017-10-19T19:58:29.059Z,140.47
2017-10-19T20:00:56.591Z,124.20
2017-10-19T20:03:24.095Z,134.07
2017-10-19T20:05:51.595Z,148.80
2017-10-19T20:08:19.137Z,156.57
2017-10-19T20:10:46.632Z,147.40
2017-10-19T20:13:14.137Z,145.93
2017-10-19T20:15:41.675Z,172.90
2017-10-19T20:18:09.189Z,160.63
2017-10-19T20:20:36.763Z,235.30
2017-10-19T20:23:04.287Z,181.27
2017-10-19T20:25:31.790Z,230.50
2017-10-19T20:27:59.348Z,179.27
2017-10-19T20:30:26.842Z,182.60
2017-10-19T20:32:54.332Z,161.27
2017-10-19T20:35:21.865Z,148.33
2017-10-19T20:37:49.475Z,149.10
2017-10-19T20:40:16.967Z,144.83
2017-10-19T20:42:44.685Z,154.00
2017-10-19T20:45:12.237Z,139.37
2017-10-19T20:47:39.771Z,141.10
2017-10-19T20:50:07.320Z,125.37
2017-10-19T20:52:34.873Z,142.50
2017-10-19T20:55:02.384Z,140.67
2017-10-19T20:57:29.920Z,141.70
2017-10-19T20:59:57.483Z,149.60
2017-10-19T21:02:24.980Z,160.53
2017-10-19T21:04:52.711Z,146.07
2017-10-19T21:07:20.215Z,147.17
2017-10-19T21:09:47.731Z,151.23
2017-10-19T21:12:15.384Z,149.50
2017-10-19T21:14:42.951Z,150.60
2017-10-19T21:17:10.449Z,147.60
2017-10-19T21:19:37.963Z,171.27
2017-10-19T21:22:05.472Z,164.73
2017-10-19T21:24:32.999Z,179.53
2017-10-19T21:27:00.501Z,157.53
2017-10-19T21:29:28.004Z,163.70
2017-10-19T21:31:55.552Z,192.07
2017-10-19T21:34:23.047Z,182.50
2017-10-19T21:36:50.596Z,179.47
2017-10-19T21:39:18.115Z,203.60
2017-10-19T21:41:45.621Z,194.93
2017-10-19T21:44:13.264Z,197.77
2017-10-19T21:46:40.912Z,249.60
2017-10-19T21:49:08.420Z,214.40
2017-10-19T21:51:36.031Z,220.53
2017-10-19T21:54:03.583Z,195.87
2017-10-19T21:56:31.079Z,198.60
2017-10-19T21:58:58.626Z,189.73
2017-10-19T22:01:26.175Z,191.47
2017-10-19T22:03:53.667Z,206.07
2017-10-19T22:06:21.162Z,196.40
2017-10-19T22:08:48.686Z,179.80
2017-10-19T22:11:16.199Z,156.80
2017-10-19T22:13:43.691Z,182.23
2017-10-19T22:16:11.415Z,194.23
2017-10-19T22:18:38.985Z,172.93
2017-10-19T22:21:06.536Z,173.27
2017-10-19T22:23:34.121Z,162.73
2017-10-19T22:26:01.665Z,163.60
2017-10-19T22:28:29.226Z,156.07
2017-10-19T22:30:56.763Z,149.50
2017-10-19T22:33:24.327Z,154.97
2017-10-19T22:35:51.913Z,147.70
2017-10-19T22:38:19.451Z,148.83
2017-10-19T22:40:46.954Z,163.57
2017-10-19T22:43:14.444Z,153.33
2017-10-19T22:45:42.051Z,157.10
2017-10-19T22:48:09.552Z,140.20
2017-10-19T22:50:37.047Z,144.20
2017-10-19T22:53:04.568Z,155.47
2017-10-19T22:55:32.164Z,148.83
2017-10-19T22:57:59.720Z,130.17
2017-10-19T23:00:28.071Z,165.17
2017-10-19T23:02:55.556Z,138.77
2017-10-19T23:05:23.063Z,137.67
2017-10-19T23:07:50.679Z,133.47
2017-10-19T23:10:18.243Z,135.17
2017-10-19T23:12:45.749Z,133.47
2017-10-19T23:15:13.268Z,142.23
2017-10-19T23:17:40.766Z,131.83
2017-10-19T23:20:08.263Z,129.57
2017-10-19T23:22:35.829Z,133.87
2017-10-19T23:25:04.145Z,127.80
2017-10-19T23:27:31.644Z,135.20
2017-10-19T23:29:59.164Z,134.10
2017-10-19T23:32:26.659Z,136.50
2017-10-19T23:34:54.159Z,142.43
2017-10-19T23:37:21.901Z,149.17
2017-10-19T23:39:49.396Z,149.73
2017-10-19T23:42:16.915Z,145.57
2017-10-19T23:44:44.479Z,134.17
2017-10-19T23:47:12.109Z,146.10
2017-10-19T23:49:39.610Z,142.23
2017-10-19T23:52:07.147Z,137.93
2017-10-19T23:54:34.652Z,148.17
2017-10-19T23:57:02.154Z,138.03
2017-10-19T23:59:29.827Z,125.80
